Jamestown Regional Airport Jamestown US
ICAO: KJMS
IATA: JMS
Category: Medium
Scheduled Services: Yes

Elevation: 1500 ft
TransAlt. 18000 ft.

Airport Communications:
ASOS:118.425
MINNEAPOLIS CNTR:124.2
GRAND FORKS RDO:122.2
CTAF/UNICOM:123

KJMS Zoom In..

Runways:

(A) RW 04 length 5750 ft width 75 ft
---- / hdg 37

(B) RW 13 length 6502 ft width 100 ft
---- / hdg 127

(C) RW 22 length 5750 ft width 75 ft
---- / hdg 217

(D) RW 31 length 6502 ft width 100 ft
ILS 109.30 / hdg 307

Location; KJMS
Day. 19 / Time. 20.56 Zulu
* Altimeter: 30.38
* Temperature: 12° c. 53.6°f.
* Wind from: VRB° Speed 03 kn.
Dewpoint: -03° c.
Visibility: 10 Statute Miles.
Clouds: Clear (automated report).

KJMS 192056Z AUTO VRB03KT 10SM CLR 12/M03 A3038 RMK AO2 SLP301 T01221028 56010


Wind From VRB°
Speed 03 kn.

  YouTube Music Video
 
jpsmedia.com for Web Design  worldairports.se 2018   terms of use